createdAt,value
2023-02-08T00:02:32.474Z,82.81
2023-02-08T00:05:21.060Z,82.99
2023-02-08T00:08:11.705Z,83.43
2023-02-08T00:11:00.343Z,82.92
2023-02-08T00:13:48.848Z,83.49
2023-02-08T00:16:37.332Z,83.20
2023-02-08T00:19:27.326Z,83.03
2023-02-08T00:22:15.898Z,83.05
2023-02-08T00:25:04.773Z,84.03
2023-02-08T00:27:53.291Z,84.29
2023-02-08T00:30:42.593Z,85.25
2023-02-08T00:33:31.293Z,86.46
2023-02-08T00:36:21.710Z,86.67
2023-02-08T00:39:10.242Z,86.53
2023-02-08T00:41:58.746Z,86.84
2023-02-08T00:44:47.277Z,87.27
2023-02-08T00:47:36.312Z,87.42
2023-02-08T00:50:24.957Z,87.87
2023-02-08T00:53:14.815Z,87.60
2023-02-08T00:56:03.262Z,87.40
2023-02-08T00:58:51.992Z,87.38
2023-02-08T01:01:41.212Z,87.37
2023-02-08T01:04:29.670Z,87.10
2023-02-08T01:07:18.199Z,86.86
2023-02-08T01:10:12.352Z,87.39
2023-02-08T01:13:01.759Z,88.18
2023-02-08T01:15:50.896Z,88.19
2023-02-08T01:18:39.610Z,88.46
2023-02-08T01:21:29.650Z,88.63
2023-02-08T01:24:18.629Z,88.87
2023-02-08T01:27:08.393Z,89.13
2023-02-08T01:29:56.880Z,88.76
2023-02-08T01:32:45.453Z,89.23
2023-02-08T01:35:33.884Z,89.47
2023-02-08T01:38:22.722Z,90.25
2023-02-08T01:41:16.011Z,90.12
2023-02-08T01:44:09.064Z,90.46
2023-02-08T01:46:57.571Z,90.77
2023-02-08T01:49:46.216Z,90.58
2023-02-08T01:52:35.015Z,90.77
2023-02-08T01:55:25.236Z,90.63
2023-02-08T01:58:14.210Z,90.42
2023-02-08T02:01:04.617Z,90.36
2023-02-08T02:03:54.707Z,90.56
2023-02-08T02:06:45.530Z,90.30
2023-02-08T02:09:39.253Z,89.52
2023-02-08T02:12:28.317Z,90.08
2023-02-08T02:15:16.860Z,90.14
2023-02-08T02:18:08.387Z,90.14
2023-02-08T02:21:11.322Z,91.00
2023-02-08T02:24:31.441Z,90.60
2023-02-08T02:27:41.927Z,91.12
2023-02-08T02:31:08.740Z,91.85
2023-02-08T02:34:04.822Z,91.81
2023-02-08T02:36:57.691Z,91.60
2023-02-08T02:39:51.359Z,91.06
2023-02-08T02:43:04.276Z,92.19
2023-02-08T02:46:00.026Z,92.89
2023-02-08T02:48:51.929Z,93.51
2023-02-08T02:51:44.690Z,93.52
2023-02-08T02:54:35.610Z,94.01
2023-02-08T02:57:29.255Z,93.60
2023-02-08T03:00:23.048Z,93.04
2023-02-08T03:03:15.278Z,93.20
2023-02-08T03:06:06.458Z,93.03
2023-02-08T03:09:14.354Z,93.06
2023-02-08T03:12:09.392Z,93.13
2023-02-08T03:15:00.725Z,92.64
2023-02-08T03:18:02.149Z,92.28
2023-02-08T03:20:53.511Z,91.88
2023-02-08T03:23:46.162Z,91.56
2023-02-08T03:26:39.679Z,91.96
2023-02-08T03:29:36.420Z,92.07
2023-02-08T03:32:27.278Z,92.66
2023-02-08T03:35:18.974Z,93.05
2023-02-08T03:38:10.676Z,93.51
2023-02-08T03:41:01.131Z,94.25
2023-02-08T03:43:53.719Z,94.98
2023-02-08T03:46:44.917Z,94.68
2023-02-08T03:49:36.528Z,94.98
2023-02-08T03:52:25.771Z,94.68
2023-02-08T03:55:15.764Z,94.75
2023-02-08T03:58:07.763Z,94.35
2023-02-08T04:01:00.914Z,94.13
2023-02-08T04:03:53.448Z,94.16
2023-02-08T04:06:42.253Z,96.32
2023-02-08T04:09:30.729Z,95.54
2023-02-08T04:12:19.347Z,95.31
2023-02-08T04:15:08.841Z,95.66
2023-02-08T04:17:58.674Z,95.60
2023-02-08T04:20:47.110Z,94.77
2023-02-08T04:23:35.532Z,95.28
2023-02-08T04:26:23.963Z,94.73
2023-02-08T04:29:12.450Z,95.17
2023-02-08T04:32:01.061Z,94.95
2023-02-08T04:34:50.872Z,94.57
2023-02-08T04:37:39.357Z,95.04
2023-02-08T04:40:27.791Z,95.31
2023-02-08T04:43:16.301Z,95.81
2023-02-08T04:46:06.026Z,96.12
2023-02-08T04:48:55.640Z,96.38
2023-02-08T04:51:46.396Z,96.03
2023-02-08T04:54:35.011Z,96.02
2023-02-08T04:57:23.483Z,96.42
2023-02-08T05:00:13.402Z,96.83
2023-02-08T05:03:01.864Z,97.04
2023-02-08T05:05:58.970Z,96.94
2023-02-08T05:08:48.783Z,96.54
2023-02-08T05:11:38.047Z,96.67
2023-02-08T05:14:26.542Z,97.49
2023-02-08T05:17:15.036Z,97.27
2023-02-08T05:20:03.930Z,97.87
2023-02-08T05:22:52.407Z,98.04
2023-02-08T05:25:42.230Z,98.17
2023-02-08T05:28:30.721Z,97.53
2023-02-08T05:31:21.479Z,97.66
2023-02-08T05:34:10.011Z,97.44
2023-02-08T05:36:58.475Z,97.66
2023-02-08T05:39:46.988Z,97.76
2023-02-08T05:42:36.780Z,97.24
2023-02-08T05:45:25.319Z,98.08
2023-02-08T05:48:14.321Z,99.00
2023-02-08T05:51:02.759Z,99.04
2023-02-08T05:53:51.259Z,99.12
2023-02-08T05:56:40.077Z,99.14
2023-02-08T05:59:30.095Z,98.45
2023-02-08T06:02:18.595Z,98.44
2023-02-08T06:05:07.785Z,98.63
2023-02-08T06:07:56.222Z,99.38
2023-02-08T06:10:45.889Z,99.47
2023-02-08T06:13:34.601Z,99.23
2023-02-08T06:16:24.537Z,98.92
2023-02-08T06:19:13.370Z,98.54
2023-02-08T06:22:01.819Z,98.62
2023-02-08T06:24:50.246Z,98.76
2023-02-08T06:27:38.764Z,98.88
2023-02-08T06:30:27.230Z,98.85
2023-02-08T06:33:17.360Z,98.64
2023-02-08T06:36:06.552Z,98.79
2023-02-08T06:38:55.293Z,98.71
2023-02-08T06:41:43.843Z,98.57
2023-02-08T06:44:32.294Z,99.56
2023-02-08T06:47:20.756Z,99.65
2023-02-08T06:50:11.329Z,99.32
2023-02-08T06:52:59.833Z,98.84
2023-02-08T06:55:49.108Z,98.75
2023-02-08T06:58:38.986Z,98.60
2023-02-08T07:01:27.537Z,99.15
2023-02-08T07:04:16.005Z,99.12
2023-02-08T07:07:06.152Z,100.00
2023-02-08T07:09:54.861Z,100.00
2023-02-08T07:12:43.285Z,96.94
2023-02-08T07:15:32.061Z,92.91
2023-02-08T07:18:20.521Z,88.31
2023-02-08T07:21:11.569Z,84.81
2023-02-08T07:24:01.464Z,81.78
2023-02-08T07:26:49.924Z,78.51
2023-02-08T07:29:39.201Z,77.00
2023-02-08T07:32:27.858Z,74.59
2023-02-08T07:35:16.359Z,73.96
2023-02-08T07:38:04.833Z,72.96
2023-02-08T07:41:01.460Z,71.00
2023-02-08T07:43:51.010Z,70.37
2023-02-08T07:46:40.868Z,69.41
2023-02-08T07:49:29.505Z,69.79
2023-02-08T07:52:17.992Z,69.48
2023-02-08T07:55:06.910Z,69.94
2023-02-08T07:57:57.243Z,68.86
2023-02-08T08:00:45.880Z,68.68
2023-02-08T08:03:34.383Z,69.17
2023-02-08T08:06:24.007Z,68.57
2023-02-08T08:09:12.537Z,70.07
2023-02-08T08:12:02.179Z,68.54
2023-02-08T08:14:52.274Z,66.22
2023-02-08T08:17:42.187Z,65.07
2023-02-08T08:20:30.782Z,64.01
2023-02-08T08:23:19.648Z,64.25
2023-02-08T08:26:09.545Z,63.43
2023-02-08T08:28:58.028Z,62.96
2023-02-08T08:31:47.959Z,61.90
2023-02-08T08:34:36.610Z,61.55
2023-02-08T08:37:25.187Z,59.58
2023-02-08T08:40:14.139Z,59.71
2023-02-08T08:43:02.644Z,59.29
2023-02-08T08:45:53.128Z,58.99
2023-02-08T08:48:43.379Z,58.51
2023-02-08T08:51:35.146Z,57.57
2023-02-08T08:54:23.868Z,57.52
2023-02-08T08:57:12.349Z,56.40
2023-02-08T09:00:00.833Z,57.44
2023-02-08T09:02:49.349Z,56.91
2023-02-08T09:05:39.196Z,56.61
2023-02-08T09:08:27.652Z,55.63
2023-02-08T09:11:17.049Z,56.24
2023-02-08T09:14:06.493Z,56.17
2023-02-08T09:16:56.241Z,55.87
2023-02-08T09:19:45.306Z,55.74
2023-02-08T09:22:35.164Z,55.31
2023-02-08T09:25:23.938Z,56.07
2023-02-08T09:28:12.496Z,55.21
2023-02-08T09:31:01.713Z,54.70
2023-02-08T09:33:51.262Z,54.66
2023-02-08T09:36:41.242Z,53.83
2023-02-08T09:39:31.154Z,53.46
2023-02-08T09:42:29.445Z,52.98
2023-02-08T09:45:30.964Z,52.03
2023-02-08T09:48:23.290Z,52.01
2023-02-08T09:51:22.514Z,50.99
2023-02-08T09:54:16.395Z,50.48
2023-02-08T09:57:10.655Z,49.76
2023-02-08T10:00:02.813Z,50.56
2023-02-08T10:02:51.959Z,49.34
2023-02-08T10:05:40.607Z,48.27
2023-02-08T10:08:35.152Z,48.21
2023-02-08T10:11:33.841Z,47.52
2023-02-08T10:14:40.855Z,47.08
2023-02-08T10:17:50.369Z,47.07
2023-02-08T10:20:51.624Z,47.14
2023-02-08T10:23:52.300Z,46.84
2023-02-08T10:26:46.022Z,46.49
2023-02-08T10:29:55.648Z,44.94
2023-02-08T10:32:51.268Z,45.50
2023-02-08T10:35:44.505Z,45.98
2023-02-08T10:38:45.837Z,45.38
2023-02-08T10:41:39.398Z,46.99
2023-02-08T10:44:34.805Z,46.51
2023-02-08T10:47:34.725Z,45.46
2023-02-08T10:50:30.559Z,45.35
2023-02-08T10:53:20.478Z,45.84
2023-02-08T10:56:19.959Z,45.61
2023-02-08T10:59:16.064Z,46.36
2023-02-08T11:02:16.261Z,45.71
2023-02-08T11:05:08.723Z,46.03
2023-02-08T11:08:07.458Z,44.78
2023-02-08T11:11:01.086Z,44.53
2023-02-08T11:13:52.346Z,45.94
2023-02-08T11:16:41.850Z,45.44
2023-02-08T11:19:35.597Z,44.66
2023-02-08T11:22:26.527Z,45.54
2023-02-08T11:25:35.572Z,45.75
2023-02-08T11:28:28.147Z,45.19
2023-02-08T11:31:19.561Z,45.61
2023-02-08T11:34:10.112Z,44.62
2023-02-08T11:36:59.620Z,44.68
2023-02-08T11:39:54.217Z,45.67
2023-02-08T11:42:44.211Z,44.57
2023-02-08T11:45:34.445Z,44.51
2023-02-08T11:48:26.131Z,44.43
2023-02-08T11:51:23.839Z,44.32
2023-02-08T11:54:33.488Z,44.40
2023-02-08T11:57:24.759Z,44.22
2023-02-08T12:00:19.843Z,45.12
2023-02-08T12:03:14.810Z,44.35
2023-02-08T12:06:22.718Z,44.88
2023-02-08T12:09:18.870Z,44.92
2023-02-08T12:12:14.406Z,44.62
2023-02-08T12:15:10.229Z,44.22
2023-02-08T12:18:10.389Z,44.52
2023-02-08T12:21:02.789Z,44.40
2023-02-08T12:23:56.370Z,44.94
2023-02-08T12:26:55.902Z,44.34
2023-02-08T12:29:48.248Z,44.22
2023-02-08T12:32:59.524Z,44.05
2023-02-08T12:36:04.248Z,44.51
2023-02-08T12:39:26.466Z,43.68
2023-02-08T12:42:29.566Z,43.11
2023-02-08T12:45:42.915Z,43.34
2023-02-08T12:48:47.202Z,43.61
2023-02-08T12:51:41.084Z,44.48
2023-02-08T12:54:33.357Z,46.73
2023-02-08T12:57:24.514Z,47.40
2023-02-08T13:00:19.958Z,47.16
2023-02-08T13:03:14.081Z,47.01
2023-02-08T13:06:06.387Z,47.34
2023-02-08T13:08:59.820Z,48.11
2023-02-08T13:11:51.361Z,47.40
2023-02-08T13:14:44.611Z,47.75
2023-02-08T13:17:46.602Z,46.98
2023-02-08T13:20:41.260Z,46.86
2023-02-08T13:23:38.464Z,47.49
2023-02-08T13:26:34.683Z,47.69
2023-02-08T13:29:26.114Z,47.90
2023-02-08T13:32:18.593Z,47.84
2023-02-08T13:35:14.835Z,48.24
2023-02-08T13:38:05.253Z,47.60
2023-02-08T13:41:06.424Z,47.60
2023-02-08T13:43:57.942Z,47.30
2023-02-08T13:46:48.418Z,47.53
2023-02-08T13:49:44.196Z,47.34
2023-02-08T13:52:50.535Z,46.95
2023-02-08T13:56:09.181Z,47.60
2023-02-08T13:59:02.307Z,48.51
2023-02-08T14:02:26.899Z,47.68
2023-02-08T14:05:47.166Z,46.87
2023-02-08T14:08:43.225Z,46.91
2023-02-08T14:11:40.427Z,46.84
2023-02-08T14:14:30.433Z,47.03
2023-02-08T14:17:21.530Z,47.58
2023-02-08T14:20:20.947Z,47.56
2023-02-08T14:23:23.173Z,47.26
2023-02-08T14:26:24.210Z,47.92
2023-02-08T14:29:23.286Z,48.23
2023-02-08T14:32:24.093Z,47.96
2023-02-08T14:35:20.706Z,48.36
2023-02-08T14:38:48.182Z,47.89
2023-02-08T14:41:51.293Z,47.68
2023-02-08T14:45:03.729Z,47.51
2023-02-08T14:48:15.677Z,47.95
2023-02-08T14:51:19.935Z,48.58
2023-02-08T14:54:18.776Z,48.49
2023-02-08T14:57:25.156Z,48.86
2023-02-08T15:00:21.228Z,49.02
2023-02-08T15:03:17.234Z,48.82
2023-02-08T15:06:49.800Z,48.93
2023-02-08T15:09:40.535Z,48.82
2023-02-08T15:12:31.032Z,49.11
2023-02-08T15:15:29.909Z,48.99
2023-02-08T15:18:21.821Z,49.05
2023-02-08T15:21:17.958Z,50.88
2023-02-08T15:24:15.226Z,49.30
2023-02-08T15:27:04.290Z,49.66
2023-02-08T15:29:53.048Z,49.24
2023-02-08T15:32:41.622Z,48.94
2023-02-08T15:35:33.750Z,48.82
2023-02-08T15:38:23.476Z,49.70
2023-02-08T15:41:13.600Z,49.45
2023-02-08T15:44:04.091Z,49.58
2023-02-08T15:49:42.823Z,49.47
2023-02-08T15:52:34.972Z,49.63
2023-02-08T15:55:23.613Z,50.08
2023-02-08T15:58:17.745Z,50.48
2023-02-08T16:01:08.377Z,50.23
2023-02-08T16:03:59.142Z,50.66
2023-02-08T16:06:49.813Z,50.88
2023-02-08T16:09:39.641Z,51.05
2023-02-08T16:12:29.277Z,51.25
2023-02-08T16:15:43.118Z,50.68
2023-02-08T16:18:34.648Z,51.26
2023-02-08T16:21:29.597Z,52.07
2023-02-08T16:24:23.563Z,52.73
2023-02-08T16:27:22.728Z,52.88
2023-02-08T16:30:18.451Z,52.75
2023-02-08T16:33:08.448Z,53.37
2023-02-08T16:36:01.832Z,54.12
2023-02-08T16:39:26.511Z,54.01
2023-02-08T16:42:29.346Z,54.11
2023-02-08T16:45:20.028Z,54.35
2023-02-08T16:48:28.758Z,54.30
2023-02-08T16:51:21.616Z,53.88
2023-02-08T16:54:13.617Z,53.94
2023-02-08T16:57:02.253Z,53.75
2023-02-08T16:59:56.603Z,54.18
2023-02-08T17:02:45.232Z,54.19
2023-02-08T17:05:37.065Z,54.82
2023-02-08T17:08:25.613Z,55.69
2023-02-08T17:11:14.122Z,56.34
2023-02-08T17:14:02.753Z,55.93
2023-02-08T17:16:52.711Z,55.92
2023-02-08T17:19:41.247Z,55.85
2023-02-08T17:22:31.324Z,55.96
2023-02-08T17:25:20.458Z,55.97
2023-02-08T17:28:12.743Z,56.34
2023-02-08T17:31:01.727Z,57.18
2023-02-08T17:33:51.638Z,57.84
2023-02-08T17:36:42.648Z,57.76
2023-02-08T17:39:31.651Z,58.11
2023-02-08T17:42:20.175Z,58.37
2023-02-08T17:45:09.866Z,58.80
2023-02-08T17:48:00.994Z,58.59
2023-02-08T17:50:53.561Z,58.07
2023-02-08T17:53:43.763Z,58.48
2023-02-08T17:56:35.351Z,58.80
2023-02-08T17:59:23.867Z,59.15
2023-02-08T18:02:12.425Z,59.01
2023-02-08T18:05:00.881Z,59.27
2023-02-08T18:07:51.244Z,58.44
2023-02-08T18:10:39.721Z,58.91
2023-02-08T18:13:28.288Z,58.08
2023-02-08T18:16:18.855Z,57.87
2023-02-08T18:19:07.496Z,58.22
2023-02-08T18:21:56.474Z,58.06
2023-02-08T18:24:46.269Z,58.22
2023-02-08T18:27:34.805Z,58.41
2023-02-08T18:30:25.500Z,57.87
2023-02-08T18:33:14.071Z,58.09
2023-02-08T18:36:02.852Z,57.70
2023-02-08T18:38:53.101Z,57.16
2023-02-08T18:41:43.386Z,58.03
2023-02-08T18:44:31.857Z,58.00
2023-02-08T18:47:20.363Z,57.75
2023-02-08T18:50:10.038Z,57.87
2023-02-08T18:52:58.557Z,64.83
2023-02-08T18:55:53.440Z,59.88
2023-02-08T18:58:43.924Z,59.50
2023-02-08T19:01:32.587Z,58.75
2023-02-08T19:04:21.177Z,59.52
2023-02-08T19:07:09.712Z,59.09
2023-02-08T19:09:58.375Z,59.32
2023-02-08T19:12:47.070Z,60.22
2023-02-08T19:15:38.040Z,60.42
2023-02-08T19:18:26.613Z,60.41
2023-02-08T19:21:16.974Z,60.59
2023-02-08T19:24:06.156Z,60.98
2023-02-08T19:26:54.629Z,61.61
2023-02-08T19:29:44.393Z,61.50
2023-02-08T19:32:34.225Z,61.20
2023-02-08T19:35:22.750Z,61.76
2023-02-08T19:38:11.319Z,62.01
2023-02-08T19:40:59.815Z,61.98
2023-02-08T19:43:49.518Z,62.18
2023-02-08T19:46:39.101Z,62.83
2023-02-08T19:49:29.196Z,63.32
2023-02-08T19:52:20.672Z,63.89
2023-02-08T19:55:12.374Z,64.41
2023-02-08T19:58:00.890Z,64.42
2023-02-08T20:00:49.401Z,64.48
2023-02-08T20:03:38.126Z,64.34
2023-02-08T20:06:29.692Z,64.56
2023-02-08T20:09:18.163Z,64.92
2023-02-08T20:12:07.220Z,64.53
2023-02-08T20:14:55.989Z,65.43
2023-02-08T20:17:45.640Z,66.73
2023-02-08T20:20:34.640Z,67.64
2023-02-08T20:23:24.524Z,67.44
2023-02-08T20:26:14.916Z,67.75
2023-02-08T20:29:03.448Z,67.90
2023-02-08T20:31:55.639Z,68.71
2023-02-08T20:34:53.945Z,69.25
2023-02-08T20:37:47.484Z,69.76
2023-02-08T20:40:37.469Z,69.64
2023-02-08T20:43:26.057Z,69.75
2023-02-08T20:46:17.037Z,69.83
2023-02-08T20:49:06.706Z,69.20
2023-02-08T20:51:55.918Z,69.23
2023-02-08T20:54:44.838Z,68.98
2023-02-08T20:57:34.805Z,69.19
2023-02-08T21:00:26.006Z,69.44
2023-02-08T21:03:21.885Z,69.63
2023-02-08T21:06:14.734Z,70.36
2023-02-08T21:09:06.933Z,70.53
2023-02-08T21:11:55.481Z,70.19
2023-02-08T21:14:45.351Z,70.66
2023-02-08T21:17:34.100Z,71.22
2023-02-08T21:20:22.907Z,71.66
2023-02-08T21:23:11.479Z,71.54
2023-02-08T21:26:00.463Z,71.46
2023-02-08T21:28:49.493Z,71.97
2023-02-08T21:31:39.833Z,71.61
2023-02-08T21:34:28.504Z,73.76
2023-02-08T21:37:17.117Z,71.89
2023-02-08T21:40:06.522Z,71.69
2023-02-08T21:42:55.121Z,72.23
2023-02-08T21:45:43.703Z,72.65
2023-02-08T21:48:54.652Z,73.04
2023-02-08T21:52:00.832Z,73.39
2023-02-08T21:54:53.417Z,72.97
2023-02-08T21:57:42.016Z,72.78
2023-02-08T22:00:30.703Z,72.91
2023-02-08T22:03:19.236Z,72.96
2023-02-08T22:06:26.844Z,72.94
2023-02-08T22:09:15.512Z,72.94
2023-02-08T22:12:04.073Z,72.36
2023-02-08T22:14:52.555Z,72.77
2023-02-08T22:17:41.069Z,73.09
2023-02-08T22:20:30.236Z,73.19
2023-02-08T22:23:20.390Z,73.01
2023-02-08T22:26:09.345Z,73.15
2023-02-08T22:28:57.946Z,72.88
2023-02-08T22:31:46.525Z,72.81
2023-02-08T22:34:35.100Z,72.68
2023-02-08T22:37:23.735Z,72.61
2023-02-08T22:40:13.875Z,72.33
2023-02-08T22:43:02.395Z,72.09
2023-02-08T22:45:58.155Z,71.76
2023-02-08T22:48:46.753Z,71.61
2023-02-08T22:51:35.293Z,71.97
2023-02-08T22:54:23.794Z,71.70
2023-02-08T22:57:13.665Z,71.68
2023-02-08T23:00:02.678Z,71.67
2023-02-08T23:02:51.286Z,71.46
2023-02-08T23:05:42.219Z,71.39
2023-02-08T23:08:30.680Z,71.88
2023-02-08T23:11:19.774Z,71.80
2023-02-08T23:14:09.887Z,71.81
2023-02-08T23:16:58.365Z,71.82
2023-02-08T23:19:46.862Z,72.33
2023-02-08T23:22:37.320Z,72.40
2023-02-08T23:25:25.849Z,72.53
2023-02-08T23:28:14.428Z,72.29
2023-02-08T23:31:07.164Z,72.46
2023-02-08T23:33:55.883Z,72.78
2023-02-08T23:36:44.653Z,72.96
2023-02-08T23:39:34.050Z,72.79
2023-02-08T23:42:28.323Z,73.02
2023-02-08T23:45:16.861Z,72.84
2023-02-08T23:48:06.938Z,72.89
2023-02-08T23:50:58.931Z,72.99
2023-02-08T23:53:47.855Z,72.81
2023-02-08T23:56:36.284Z,72.44
2023-02-08T23:59:24.754Z,71.81
